Orbital elements of FENGYUN 1C DEB
| Launched | 9 May 1999 |
| Flight ended | – |
| Launch site | Taiyuan Space Center, PRC |
| Owner | People's Republic of China |
| NORAD ID | 31883 |
| Date fetched |
Epoch osculation |
Inc. [°] |
Ecc. | RA asc node [hr] |
Arg Peri. [°] |
Mean anom [°] |
Mean motion [rev/day] |
Abs. mag |
| Date fetched |
Epoch osculation |
Inc. [°] |
Ecc. | RA asc node [hr] |
Arg Peri. [°] |
Mean anom [°] |
Mean motion [rev/day] |
Abs. mag |
| 2026 May 09 17:57 | 2026 May 05 01:23:11 | 99.0348 | 0.01205 | 4.1033 | 347.4404 | 12.3802 | 14.69282 | – |
| 2026 May 08 17:57 | 2026 May 05 01:23:11 | 99.0348 | 0.01205 | 4.1033 | 347.4404 | 12.3802 | 14.69282 | – |
| 2026 May 07 17:58 | 2026 May 05 01:23:11 | 99.0348 | 0.01205 | 4.1033 | 347.4404 | 12.3802 | 14.69282 | – |
| 2026 May 06 17:57 | 2026 May 05 01:23:11 | 99.0348 | 0.01205 | 4.1033 | 347.4404 | 12.3802 | 14.69282 | – |
| 2026 May 05 17:57 | 2026 May 05 01:23:11 | 99.0348 | 0.01205 | 4.1033 | 347.4404 | 12.3802 | 14.69282 | – |
| 2026 May 04 17:57 | 2026 Apr 30 13:30:56 | 99.0350 | 0.01210 | 3.7720 | 1.2444 | 12.3802 | 14.69282 | – |
| 2026 May 03 17:57 | 2026 Apr 30 13:30:56 | 99.0350 | 0.01210 | 3.7720 | 1.2444 | 12.3802 | 14.69282 | – |
| 2026 May 02 17:57 | 2026 Apr 30 13:30:56 | 99.0350 | 0.01210 | 3.7720 | 1.2444 | 12.3802 | 14.69282 | – |
| 2026 May 01 17:56 | 2026 Apr 30 13:30:56 | 99.0350 | 0.01210 | 3.7720 | 1.2444 | 12.3802 | 14.69282 | – |
| 2026 Apr 30 17:56 | 2026 Apr 30 13:30:56 | 99.0350 | 0.01210 | 3.7720 | 1.2444 | 12.3802 | 14.69282 | – |
| 2026 Apr 29 17:57 | 2026 Apr 23 06:37:32 | 99.0334 | 0.01217 | 3.2351 | 23.6558 | 12.3802 | 14.69282 | – |
| 2026 Apr 28 17:56 | 2026 Apr 23 06:37:32 | 99.0334 | 0.01217 | 3.2351 | 23.6558 | 12.3802 | 14.69282 | – |
| 2026 Apr 27 17:58 | 2026 Apr 23 06:37:32 | 99.0334 | 0.01217 | 3.2351 | 23.6558 | 12.3802 | 14.69282 | – |
| 2026 Apr 26 17:58 | 2026 Apr 23 06:37:32 | 99.0334 | 0.01217 | 3.2351 | 23.6558 | 12.3802 | 14.69282 | – |
| 2026 Apr 25 17:58 | 2026 Apr 23 06:37:32 | 99.0334 | 0.01217 | 3.2351 | 23.6558 | 12.3802 | 14.69282 | – |
| 2026 Apr 24 17:59 | 2026 Apr 23 06:37:32 | 99.0334 | 0.01217 | 3.2351 | 23.6558 | 12.3802 | 14.69282 | – |
| 2026 Apr 23 17:57 | 2026 Apr 17 13:19:20 | 99.0319 | 0.01222 | 2.8135 | 41.2945 | 12.3802 | 14.69282 | – |
| 2026 Apr 22 17:57 | 2026 Apr 17 13:19:20 | 99.0319 | 0.01222 | 2.8135 | 41.2945 | 12.3802 | 14.69282 | – |
| 2026 Apr 21 17:57 | 2026 Apr 17 13:19:20 | 99.0319 | 0.01222 | 2.8135 | 41.2945 | 12.3802 | 14.69282 | – |
| 2026 Apr 20 17:57 | 2026 Apr 17 13:19:20 | 99.0319 | 0.01222 | 2.8135 | 41.2945 | 12.3802 | 14.69282 | – |
| 2026 Apr 19 17:58 | 2026 Apr 17 13:19:20 | 99.0319 | 0.01222 | 2.8135 | 41.2945 | 12.3802 | 14.69282 | – |
| 2026 Apr 18 17:56 | 2026 Apr 13 06:20:29 | 99.0328 | 0.01225 | 2.4976 | 54.3648 | 12.3802 | 14.69282 | – |
| 2026 Apr 16 17:57 | 2026 Apr 13 06:20:29 | 99.0328 | 0.01225 | 2.4976 | 54.3648 | 12.3802 | 14.69282 | – |
| 2026 Apr 14 17:57 | 2026 Apr 13 06:20:29 | 99.0328 | 0.01225 | 2.4976 | 54.3648 | 12.3802 | 14.69282 | – |
| 2026 Apr 13 17:57 | 2026 Apr 13 06:20:29 | 99.0328 | 0.01225 | 2.4976 | 54.3648 | 12.3802 | 14.69282 | – |
| 2026 Apr 12 17:57 | 2026 Apr 07 17:56:06 | 99.0326 | 0.01225 | 2.0913 | 71.1916 | 12.3802 | 14.69282 | – |